sensor_id;sensor_type;location;lat;lon;timestamp;temperature;humidity
27647;DHT22;42229;51.230;6.240;2023-03-29T00:01:14;8.00;99.90
27647;DHT22;42229;51.230;6.240;2023-03-29T00:03:41;8.00;99.90
27647;DHT22;42229;51.230;6.240;2023-03-29T00:06:10;8.00;99.90
27647;DHT22;42229;51.230;6.240;2023-03-29T00:08:40;7.90;99.90
27647;DHT22;42229;51.230;6.240;2023-03-29T00:11:07;8.00;99.90
27647;DHT22;42229;51.230;6.240;2023-03-29T00:13:33;7.90;99.90
27647;DHT22;42229;51.230;6.240;2023-03-29T00:16:00;7.90;99.90
27647;DHT22;42229;51.230;6.240;2023-03-29T00:18:26;7.90;99.90
27647;DHT22;42229;51.230;6.240;2023-03-29T00:20:57;7.90;99.90
27647;DHT22;42229;51.230;6.240;2023-03-29T00:23:23;7.90;99.90
27647;DHT22;42229;51.230;6.240;2023-03-29T00:25:53;8.00;99.90
27647;DHT22;42229;51.230;6.240;2023-03-29T00:28:20;8.00;99.90
27647;DHT22;42229;51.230;6.240;2023-03-29T00:30:47;8.00;99.90
27647;DHT22;42229;51.230;6.240;2023-03-29T00:33:16;8.00;99.90
27647;DHT22;42229;51.230;6.240;2023-03-29T00:35:45;8.00;99.90
27647;DHT22;42229;51.230;6.240;2023-03-29T00:38:14;8.00;99.90
27647;DHT22;42229;51.230;6.240;2023-03-29T00:40:44;8.00;99.90
27647;DHT22;42229;51.230;6.240;2023-03-29T00:43:14;8.00;99.90
27647;DHT22;42229;51.230;6.240;2023-03-29T00:45:40;8.00;99.90
27647;DHT22;42229;51.230;6.240;2023-03-29T00:48:11;8.00;99.90
27647;DHT22;42229;51.230;6.240;2023-03-29T00:53:26;8.10;99.90
27647;DHT22;42229;51.230;6.240;2023-03-29T00:56:00;8.10;99.90
27647;DHT22;42229;51.230;6.240;2023-03-29T00:58:41;8.10;99.90
27647;DHT22;42229;51.230;6.240;2023-03-29T01:01:13;8.10;99.90
27647;DHT22;42229;51.230;6.240;2023-03-29T01:03:47;8.10;99.90
27647;DHT22;42229;51.230;6.240;2023-03-29T01:06:15;8.10;99.90
27647;DHT22;42229;51.230;6.240;2023-03-29T01:08:43;8.10;99.90
27647;DHT22;42229;51.230;6.240;2023-03-29T01:11:15;8.10;99.90
27647;DHT22;42229;51.230;6.240;2023-03-29T01:13:46;8.10;99.90
27647;DHT22;42229;51.230;6.240;2023-03-29T01:16:16;8.10;99.90
27647;DHT22;42229;51.230;6.240;2023-03-29T01:18:44;8.20;99.90
27647;DHT22;42229;51.230;6.240;2023-03-29T01:29:12;8.20;99.90
27647;DHT22;42229;51.230;6.240;2023-03-29T01:31:43;8.20;99.90
27647;DHT22;42229;51.230;6.240;2023-03-29T01:39:29;8.20;99.90
27647;DHT22;42229;51.230;6.240;2023-03-29T01:42:16;8.20;99.90
27647;DHT22;42229;51.230;6.240;2023-03-29T01:44:54;8.30;99.90
27647;DHT22;42229;51.230;6.240;2023-03-29T01:50:33;8.30;99.90
27647;DHT22;42229;51.230;6.240;2023-03-29T01:55:43;8.30;99.90
27647;DHT22;42229;51.230;6.240;2023-03-29T01:58:12;8.30;99.90
27647;DHT22;42229;51.230;6.240;2023-03-29T02:00:39;8.30;99.90
27647;DHT22;42229;51.230;6.240;2023-03-29T02:03:07;8.40;99.90
27647;DHT22;42229;51.230;6.240;2023-03-29T02:05:35;8.40;99.90
27647;DHT22;42229;51.230;6.240;2023-03-29T02:08:03;8.40;99.90
27647;DHT22;42229;51.230;6.240;2023-03-29T02:10:31;8.40;99.90
27647;DHT22;42229;51.230;6.240;2023-03-29T02:12:59;8.40;99.90
27647;DHT22;42229;51.230;6.240;2023-03-29T02:15:25;8.40;99.90
27647;DHT22;42229;51.230;6.240;2023-03-29T02:17:52;8.40;99.90
27647;DHT22;42229;51.230;6.240;2023-03-29T02:20:19;8.40;99.90
27647;DHT22;42229;51.230;6.240;2023-03-29T02:22:50;8.50;99.90
27647;DHT22;42229;51.230;6.240;2023-03-29T02:25:21;8.50;99.90
27647;DHT22;42229;51.230;6.240;2023-03-29T02:27:49;8.60;99.90
27647;DHT22;42229;51.230;6.240;2023-03-29T02:30:17;8.60;99.90
27647;DHT22;42229;51.230;6.240;2023-03-29T02:32:46;8.60;99.90
27647;DHT22;42229;51.230;6.240;2023-03-29T02:35:26;8.60;99.90
27647;DHT22;42229;51.230;6.240;2023-03-29T02:38:00;8.60;99.90
27647;DHT22;42229;51.230;6.240;2023-03-29T02:40:28;8.70;99.90
27647;DHT22;42229;51.230;6.240;2023-03-29T02:42:57;8.70;99.90
27647;DHT22;42229;51.230;6.240;2023-03-29T02:45:26;8.70;99.90
27647;DHT22;42229;51.230;6.240;2023-03-29T02:47:54;8.70;99.90
27647;DHT22;42229;51.230;6.240;2023-03-29T02:50:23;8.80;99.90
27647;DHT22;42229;51.230;6.240;2023-03-29T02:52:52;8.80;99.90
27647;DHT22;42229;51.230;6.240;2023-03-29T02:55:21;8.80;99.90
27647;DHT22;42229;51.230;6.240;2023-03-29T02:57:48;8.80;99.90
27647;DHT22;42229;51.230;6.240;2023-03-29T03:00:15;8.90;99.90
27647;DHT22;42229;51.230;6.240;2023-03-29T03:02:45;8.80;99.90
27647;DHT22;42229;51.230;6.240;2023-03-29T03:05:15;8.80;99.90
27647;DHT22;42229;51.230;6.240;2023-03-29T03:07:42;8.80;99.90
27647;DHT22;42229;51.230;6.240;2023-03-29T03:10:08;8.90;99.90
27647;DHT22;42229;51.230;6.240;2023-03-29T03:12:37;8.90;99.90
27647;DHT22;42229;51.230;6.240;2023-03-29T03:15:03;8.90;99.90
27647;DHT22;42229;51.230;6.240;2023-03-29T03:17:31;8.90;99.90
27647;DHT22;42229;51.230;6.240;2023-03-29T03:19:58;8.90;99.90
27647;DHT22;42229;51.230;6.240;2023-03-29T03:22:26;8.90;99.90
27647;DHT22;42229;51.230;6.240;2023-03-29T03:24:52;8.90;99.90
27647;DHT22;42229;51.230;6.240;2023-03-29T03:27:19;8.90;99.90
27647;DHT22;42229;51.230;6.240;2023-03-29T03:29:45;8.90;99.90
27647;DHT22;42229;51.230;6.240;2023-03-29T03:32:44;8.90;99.90
27647;DHT22;42229;51.230;6.240;2023-03-29T03:35:48;8.90;99.90
27647;DHT22;42229;51.230;6.240;2023-03-29T03:38:16;8.90;99.90
27647;DHT22;42229;51.230;6.240;2023-03-29T03:40:52;8.90;99.90
27647;DHT22;42229;51.230;6.240;2023-03-29T03:43:19;8.90;99.90
27647;DHT22;42229;51.230;6.240;2023-03-29T03:45:47;9.00;99.90
27647;DHT22;42229;51.230;6.240;2023-03-29T03:48:16;9.00;99.90
27647;DHT22;42229;51.230;6.240;2023-03-29T03:50:48;9.00;99.90
27647;DHT22;42229;51.230;6.240;2023-03-29T03:53:15;9.00;99.90
27647;DHT22;42229;51.230;6.240;2023-03-29T03:56:03;9.00;99.90
27647;DHT22;42229;51.230;6.240;2023-03-29T03:58:36;9.00;99.90
27647;DHT22;42229;51.230;6.240;2023-03-29T04:01:03;9.10;99.90
27647;DHT22;42229;51.230;6.240;2023-03-29T04:03:38;9.10;99.90
27647;DHT22;42229;51.230;6.240;2023-03-29T04:06:05;9.10;99.90
27647;DHT22;42229;51.230;6.240;2023-03-29T04:08:51;9.10;99.90
27647;DHT22;42229;51.230;6.240;2023-03-29T04:11:34;9.10;99.90
27647;DHT22;42229;51.230;6.240;2023-03-29T04:14:00;9.10;99.90
27647;DHT22;42229;51.230;6.240;2023-03-29T04:16:38;9.10;99.90
27647;DHT22;42229;51.230;6.240;2023-03-29T04:19:24;9.20;99.90
27647;DHT22;42229;51.230;6.240;2023-03-29T04:21:50;9.20;99.90
27647;DHT22;42229;51.230;6.240;2023-03-29T04:24:17;9.20;99.90
27647;DHT22;42229;51.230;6.240;2023-03-29T04:26:55;9.20;99.90
27647;DHT22;42229;51.230;6.240;2023-03-29T04:29:23;9.20;99.90
27647;DHT22;42229;51.230;6.240;2023-03-29T04:31:56;9.20;99.90
27647;DHT22;42229;51.230;6.240;2023-03-29T04:34:40;9.20;99.90
27647;DHT22;42229;51.230;6.240;2023-03-29T04:37:06;9.30;99.90
27647;DHT22;42229;51.230;6.240;2023-03-29T04:39:35;9.30;99.90
27647;DHT22;42229;51.230;6.240;2023-03-29T04:42:04;9.30;99.90
27647;DHT22;42229;51.230;6.240;2023-03-29T04:44:31;9.30;99.90
27647;DHT22;42229;51.230;6.240;2023-03-29T04:47:00;9.30;99.90
27647;DHT22;42229;51.230;6.240;2023-03-29T04:49:43;9.30;99.90
27647;DHT22;42229;51.230;6.240;2023-03-29T04:52:16;9.30;99.90
27647;DHT22;42229;51.230;6.240;2023-03-29T04:54:43;9.30;99.90
27647;DHT22;42229;51.230;6.240;2023-03-29T04:57:23;9.30;99.90
27647;DHT22;42229;51.230;6.240;2023-03-29T05:00:16;9.40;99.90
27647;DHT22;42229;51.230;6.240;2023-03-29T05:03:02;9.40;99.90
27647;DHT22;42229;51.230;6.240;2023-03-29T05:05:32;9.40;99.90
27647;DHT22;42229;51.230;6.240;2023-03-29T05:08:01;9.40;99.90
27647;DHT22;42229;51.230;6.240;2023-03-29T05:10:40;9.40;99.90
27647;DHT22;42229;51.230;6.240;2023-03-29T05:13:08;9.50;99.90
27647;DHT22;42229;51.230;6.240;2023-03-29T05:15:35;9.50;99.90
27647;DHT22;42229;51.230;6.240;2023-03-29T05:18:02;9.50;99.90
27647;DHT22;42229;51.230;6.240;2023-03-29T05:20:29;9.50;99.90
27647;DHT22;42229;51.230;6.240;2023-03-29T05:22:57;9.50;99.90
27647;DHT22;42229;51.230;6.240;2023-03-29T05:25:43;9.60;99.90
27647;DHT22;42229;51.230;6.240;2023-03-29T05:28:09;9.60;99.90
27647;DHT22;42229;51.230;6.240;2023-03-29T05:30:36;9.60;99.90
27647;DHT22;42229;51.230;6.240;2023-03-29T05:33:16;9.60;99.90
27647;DHT22;42229;51.230;6.240;2023-03-29T05:35:43;9.70;99.90
27647;DHT22;42229;51.230;6.240;2023-03-29T05:38:09;9.70;99.90
27647;DHT22;42229;51.230;6.240;2023-03-29T05:40:36;9.70;99.90
27647;DHT22;42229;51.230;6.240;2023-03-29T05:43:26;9.70;99.90
27647;DHT22;42229;51.230;6.240;2023-03-29T05:45:54;9.80;99.90
27647;DHT22;42229;51.230;6.240;2023-03-29T05:48:21;9.80;99.90
27647;DHT22;42229;51.230;6.240;2023-03-29T05:50:49;9.80;99.90
27647;DHT22;42229;51.230;6.240;2023-03-29T05:53:18;9.90;99.90
27647;DHT22;42229;51.230;6.240;2023-03-29T05:55:47;9.80;99.90
27647;DHT22;42229;51.230;6.240;2023-03-29T05:58:16;9.90;99.90
27647;DHT22;42229;51.230;6.240;2023-03-29T06:00:48;9.90;99.90
27647;DHT22;42229;51.230;6.240;2023-03-29T06:03:33;9.90;99.90
27647;DHT22;42229;51.230;6.240;2023-03-29T06:06:00;10.00;99.90
27647;DHT22;42229;51.230;6.240;2023-03-29T06:08:28;10.00;99.90
27647;DHT22;42229;51.230;6.240;2023-03-29T06:11:04;10.00;99.90
27647;DHT22;42229;51.230;6.240;2023-03-29T06:14:05;10.10;99.90
27647;DHT22;42229;51.230;6.240;2023-03-29T06:16:34;10.10;99.90
27647;DHT22;42229;51.230;6.240;2023-03-29T06:19:01;10.20;99.90
27647;DHT22;42229;51.230;6.240;2023-03-29T06:21:28;10.20;99.90
27647;DHT22;42229;51.230;6.240;2023-03-29T06:23:55;10.20;99.90
27647;DHT22;42229;51.230;6.240;2023-03-29T06:26:23;10.20;99.90
27647;DHT22;42229;51.230;6.240;2023-03-29T06:28:50;10.30;99.90
27647;DHT22;42229;51.230;6.240;2023-03-29T06:31:16;10.30;99.90
27647;DHT22;42229;51.230;6.240;2023-03-29T06:33:45;10.30;99.90
27647;DHT22;42229;51.230;6.240;2023-03-29T06:36:24;10.40;99.90
27647;DHT22;42229;51.230;6.240;2023-03-29T06:38:51;10.40;99.90
27647;DHT22;42229;51.230;6.240;2023-03-29T06:41:24;10.50;99.90
27647;DHT22;42229;51.230;6.240;2023-03-29T06:44:11;10.50;99.90
27647;DHT22;42229;51.230;6.240;2023-03-29T06:46:50;10.50;99.90
27647;DHT22;42229;51.230;6.240;2023-03-29T06:49:16;10.60;99.90
27647;DHT22;42229;51.230;6.240;2023-03-29T06:52:05;10.70;99.90
27647;DHT22;42229;51.230;6.240;2023-03-29T06:54:31;10.70;99.90
27647;DHT22;42229;51.230;6.240;2023-03-29T06:57:02;10.80;99.90
27647;DHT22;42229;51.230;6.240;2023-03-29T06:59:33;10.80;99.90
27647;DHT22;42229;51.230;6.240;2023-03-29T07:02:18;10.90;99.90
27647;DHT22;42229;51.230;6.240;2023-03-29T07:04:49;10.90;99.90
27647;DHT22;42229;51.230;6.240;2023-03-29T07:07:21;10.90;99.90
27647;DHT22;42229;51.230;6.240;2023-03-29T07:09:53;11.00;99.90
27647;DHT22;42229;51.230;6.240;2023-03-29T07:12:58;11.10;99.90
27647;DHT22;42229;51.230;6.240;2023-03-29T07:15:28;11.20;99.90
27647;DHT22;42229;51.230;6.240;2023-03-29T07:18:07;11.20;99.90
27647;DHT22;42229;51.230;6.240;2023-03-29T07:20:34;11.30;99.90
27647;DHT22;42229;51.230;6.240;2023-03-29T07:23:08;11.40;99.90
27647;DHT22;42229;51.230;6.240;2023-03-29T07:25:35;11.40;99.90
27647;DHT22;42229;51.230;6.240;2023-03-29T07:28:02;11.50;99.90
27647;DHT22;42229;51.230;6.240;2023-03-29T07:30:29;11.60;99.90
27647;DHT22;42229;51.230;6.240;2023-03-29T07:33:07;11.70;99.90
27647;DHT22;42229;51.230;6.240;2023-03-29T07:35:48;11.80;99.90
27647;DHT22;42229;51.230;6.240;2023-03-29T07:38:15;11.90;99.90
27647;DHT22;42229;51.230;6.240;2023-03-29T07:40:46;12.00;99.90
27647;DHT22;42229;51.230;6.240;2023-03-29T07:43:32;12.00;99.90
27647;DHT22;42229;51.230;6.240;2023-03-29T07:46:02;12.20;99.90
27647;DHT22;42229;51.230;6.240;2023-03-29T07:48:32;12.20;99.90
27647;DHT22;42229;51.230;6.240;2023-03-29T07:51:02;12.30;99.90
27647;DHT22;42229;51.230;6.240;2023-03-29T07:53:37;12.40;99.90
27647;DHT22;42229;51.230;6.240;2023-03-29T07:56:10;12.50;99.90
27647;DHT22;42229;51.230;6.240;2023-03-29T07:58:53;12.50;99.90
27647;DHT22;42229;51.230;6.240;2023-03-29T08:01:20;12.60;99.90
27647;DHT22;42229;51.230;6.240;2023-03-29T08:04:13;12.70;99.90
27647;DHT22;42229;51.230;6.240;2023-03-29T08:06:58;12.80;99.90
27647;DHT22;42229;51.230;6.240;2023-03-29T08:09:35;12.90;99.90
27647;DHT22;42229;51.230;6.240;2023-03-29T08:12:02;13.00;99.90
27647;DHT22;42229;51.230;6.240;2023-03-29T08:14:34;13.00;99.90
27647;DHT22;42229;51.230;6.240;2023-03-29T08:17:20;13.10;99.90
27647;DHT22;42229;51.230;6.240;2023-03-29T08:19:48;13.00;99.90
27647;DHT22;42229;51.230;6.240;2023-03-29T08:22:19;13.00;99.90
27647;DHT22;42229;51.230;6.240;2023-03-29T08:25:10;13.10;99.90
27647;DHT22;42229;51.230;6.240;2023-03-29T08:27:42;13.10;99.90
27647;DHT22;42229;51.230;6.240;2023-03-29T08:30:11;13.10;99.90
27647;DHT22;42229;51.230;6.240;2023-03-29T08:32:40;13.10;99.90
27647;DHT22;42229;51.230;6.240;2023-03-29T08:35:07;13.20;99.90
27647;DHT22;42229;51.230;6.240;2023-03-29T08:37:39;13.20;99.90
27647;DHT22;42229;51.230;6.240;2023-03-29T08:40:05;13.30;99.90
27647;DHT22;42229;51.230;6.240;2023-03-29T08:43:05;13.30;99.90
27647;DHT22;42229;51.230;6.240;2023-03-29T08:48:46;13.50;99.90
27647;DHT22;42229;51.230;6.240;2023-03-29T08:51:23;13.50;99.90
27647;DHT22;42229;51.230;6.240;2023-03-29T08:53:53;13.50;99.90
27647;DHT22;42229;51.230;6.240;2023-03-29T08:56:26;13.60;99.90
27647;DHT22;42229;51.230;6.240;2023-03-29T08:59:16;13.60;99.90
27647;DHT22;42229;51.230;6.240;2023-03-29T09:01:44;13.70;99.90
27647;DHT22;42229;51.230;6.240;2023-03-29T09:04:18;13.70;99.90
27647;DHT22;42229;51.230;6.240;2023-03-29T09:06:53;13.80;99.90
27647;DHT22;42229;51.230;6.240;2023-03-29T09:09:29;13.80;99.90
27647;DHT22;42229;51.230;6.240;2023-03-29T09:20:36;13.90;99.90
27647;DHT22;42229;51.230;6.240;2023-03-29T09:32:19;14.20;99.90
27647;DHT22;42229;51.230;6.240;2023-03-29T09:35:12;14.20;99.90
27647;DHT22;42229;51.230;6.240;2023-03-29T09:37:46;14.30;99.90
27647;DHT22;42229;51.230;6.240;2023-03-29T09:40:25;14.40;99.90
27647;DHT22;42229;51.230;6.240;2023-03-29T09:43:02;14.50;99.90
27647;DHT22;42229;51.230;6.240;2023-03-29T09:45:29;14.60;99.90
27647;DHT22;42229;51.230;6.240;2023-03-29T09:48:02;14.70;99.90
27647;DHT22;42229;51.230;6.240;2023-03-29T09:50:35;14.80;99.90
27647;DHT22;42229;51.230;6.240;2023-03-29T09:53:06;14.90;99.90
27647;DHT22;42229;51.230;6.240;2023-03-29T09:55:36;15.10;99.90
27647;DHT22;42229;51.230;6.240;2023-03-29T09:58:27;15.10;99.90
27647;DHT22;42229;51.230;6.240;2023-03-29T10:00:56;15.30;99.90
27647;DHT22;42229;51.230;6.240;2023-03-29T10:03:24;15.40;99.90
27647;DHT22;42229;51.230;6.240;2023-03-29T10:06:00;15.40;99.90
27647;DHT22;42229;51.230;6.240;2023-03-29T10:08:35;15.60;99.90
27647;DHT22;42229;51.230;6.240;2023-03-29T10:11:06;15.60;99.90
27647;DHT22;42229;51.230;6.240;2023-03-29T10:13:34;15.70;99.90
27647;DHT22;42229;51.230;6.240;2023-03-29T10:16:08;15.80;99.90
27647;DHT22;42229;51.230;6.240;2023-03-29T10:18:43;15.80;99.90
27647;DHT22;42229;51.230;6.240;2023-03-29T10:21:10;15.90;99.90
27647;DHT22;42229;51.230;6.240;2023-03-29T10:23:40;16.00;99.90
27647;DHT22;42229;51.230;6.240;2023-03-29T10:26:22;16.00;99.90
27647;DHT22;42229;51.230;6.240;2023-03-29T10:28:51;16.10;99.90
27647;DHT22;42229;51.230;6.240;2023-03-29T10:31:22;16.10;99.90
27647;DHT22;42229;51.230;6.240;2023-03-29T10:33:53;16.30;99.90
27647;DHT22;42229;51.230;6.240;2023-03-29T10:36:21;16.30;99.90
27647;DHT22;42229;51.230;6.240;2023-03-29T10:38:50;16.40;99.90
27647;DHT22;42229;51.230;6.240;2023-03-29T10:41:17;16.50;99.90
27647;DHT22;42229;51.230;6.240;2023-03-29T10:43:47;16.60;99.90
27647;DHT22;42229;51.230;6.240;2023-03-29T10:46:49;16.70;99.90
27647;DHT22;42229;51.230;6.240;2023-03-29T10:49:17;16.80;99.90
27647;DHT22;42229;51.230;6.240;2023-03-29T10:51:45;16.80;99.90
27647;DHT22;42229;51.230;6.240;2023-03-29T10:54:12;16.90;99.90
27647;DHT22;42229;51.230;6.240;2023-03-29T10:56:46;16.90;99.90
27647;DHT22;42229;51.230;6.240;2023-03-29T11:02:19;17.00;99.90
27647;DHT22;42229;51.230;6.240;2023-03-29T11:05:13;17.00;99.90
27647;DHT22;42229;51.230;6.240;2023-03-29T11:13:11;17.00;99.90
27647;DHT22;42229;51.230;6.240;2023-03-29T11:16:17;17.00;99.90
27647;DHT22;42229;51.230;6.240;2023-03-29T11:21:25;17.10;99.90
27647;DHT22;42229;51.230;6.240;2023-03-29T11:29:59;17.20;99.90
27647;DHT22;42229;51.230;6.240;2023-03-29T11:43:53;17.50;99.90
27647;DHT22;42229;51.230;6.240;2023-03-29T11:46:31;17.50;99.90
27647;DHT22;42229;51.230;6.240;2023-03-29T11:51:47;17.70;99.90
27647;DHT22;42229;51.230;6.240;2023-03-29T11:54:27;17.70;99.90
27647;DHT22;42229;51.230;6.240;2023-03-29T11:57:10;17.70;99.90
27647;DHT22;42229;51.230;6.240;2023-03-29T12:05:34;18.00;99.90
27647;DHT22;42229;51.230;6.240;2023-03-29T12:08:06;18.10;99.90
27647;DHT22;42229;51.230;6.240;2023-03-29T12:10:57;18.10;99.90
27647;DHT22;42229;51.230;6.240;2023-03-29T12:13:30;18.20;99.90
27647;DHT22;42229;51.230;6.240;2023-03-29T12:15:59;18.40;99.90
27647;DHT22;42229;51.230;6.240;2023-03-29T12:18:32;18.50;99.90
27647;DHT22;42229;51.230;6.240;2023-03-29T12:21:02;18.60;99.90
27647;DHT22;42229;51.230;6.240;2023-03-29T12:23:34;18.70;99.90
27647;DHT22;42229;51.230;6.240;2023-03-29T12:43:01;18.80;99.90
27647;DHT22;42229;51.230;6.240;2023-03-29T12:45:47;18.70;99.90
27647;DHT22;42229;51.230;6.240;2023-03-29T12:48:19;18.70;99.90
27647;DHT22;42229;51.230;6.240;2023-03-29T12:50:54;18.70;99.90
27647;DHT22;42229;51.230;6.240;2023-03-29T12:53:26;18.60;99.90
27647;DHT22;42229;51.230;6.240;2023-03-29T13:01:34;18.40;99.90
27647;DHT22;42229;51.230;6.240;2023-03-29T13:04:15;18.40;99.90
27647;DHT22;42229;51.230;6.240;2023-03-29T13:09:19;18.40;99.90
27647;DHT22;42229;51.230;6.240;2023-03-29T13:11:51;18.40;99.90
27647;DHT22;42229;51.230;6.240;2023-03-29T13:14:18;18.30;99.90
27647;DHT22;42229;51.230;6.240;2023-03-29T13:16:45;18.30;99.90
27647;DHT22;42229;51.230;6.240;2023-03-29T13:20:15;18.30;99.90
27647;DHT22;42229;51.230;6.240;2023-03-29T13:28:16;18.60;99.90
27647;DHT22;42229;51.230;6.240;2023-03-29T13:30:50;18.70;99.90
27647;DHT22;42229;51.230;6.240;2023-03-29T13:36:31;18.80;99.90
27647;DHT22;42229;51.230;6.240;2023-03-29T13:39:01;18.90;99.90
27647;DHT22;42229;51.230;6.240;2023-03-29T13:46:47;19.00;99.90
27647;DHT22;42229;51.230;6.240;2023-03-29T14:05:15;19.30;99.90
27647;DHT22;42229;51.230;6.240;2023-03-29T14:07:47;19.30;99.90
27647;DHT22;42229;51.230;6.240;2023-03-29T14:10:23;19.30;99.90
27647;DHT22;42229;51.230;6.240;2023-03-29T14:12:52;19.30;99.90
27647;DHT22;42229;51.230;6.240;2023-03-29T14:15:21;19.30;99.90
27647;DHT22;42229;51.230;6.240;2023-03-29T14:17:53;19.20;99.90
27647;DHT22;42229;51.230;6.240;2023-03-29T14:20:20;19.30;99.90
27647;DHT22;42229;51.230;6.240;2023-03-29T14:22:47;19.20;99.90
27647;DHT22;42229;51.230;6.240;2023-03-29T14:25:16;19.20;99.90
27647;DHT22;42229;51.230;6.240;2023-03-29T14:27:43;19.20;99.90
27647;DHT22;42229;51.230;6.240;2023-03-29T14:30:21;19.30;99.90
27647;DHT22;42229;51.230;6.240;2023-03-29T14:32:49;19.30;99.90
27647;DHT22;42229;51.230;6.240;2023-03-29T14:35:17;19.30;99.90
27647;DHT22;42229;51.230;6.240;2023-03-29T14:37:44;19.40;99.90
27647;DHT22;42229;51.230;6.240;2023-03-29T14:40:15;19.30;99.90
27647;DHT22;42229;51.230;6.240;2023-03-29T14:42:44;19.30;99.90
27647;DHT22;42229;51.230;6.240;2023-03-29T14:45:12;19.30;99.90
27647;DHT22;42229;51.230;6.240;2023-03-29T14:47:40;19.30;99.90
27647;DHT22;42229;51.230;6.240;2023-03-29T14:50:28;19.30;99.90
27647;DHT22;42229;51.230;6.240;2023-03-29T14:52:55;19.30;99.90
27647;DHT22;42229;51.230;6.240;2023-03-29T14:55:22;19.20;99.90
27647;DHT22;42229;51.230;6.240;2023-03-29T14:57:50;19.20;99.90
27647;DHT22;42229;51.230;6.240;2023-03-29T15:00:29;19.20;99.90
27647;DHT22;42229;51.230;6.240;2023-03-29T15:03:02;19.10;99.90
27647;DHT22;42229;51.230;6.240;2023-03-29T15:05:30;19.10;99.90
27647;DHT22;42229;51.230;6.240;2023-03-29T15:07:57;19.00;99.90
27647;DHT22;42229;51.230;6.240;2023-03-29T15:10:23;19.00;99.90
27647;DHT22;42229;51.230;6.240;2023-03-29T15:12:49;19.00;99.90
27647;DHT22;42229;51.230;6.240;2023-03-29T15:15:16;19.00;99.90
27647;DHT22;42229;51.230;6.240;2023-03-29T15:17:43;18.90;99.90
27647;DHT22;42229;51.230;6.240;2023-03-29T15:20:12;18.90;99.90
27647;DHT22;42229;51.230;6.240;2023-03-29T15:22:52;18.90;99.90
27647;DHT22;42229;51.230;6.240;2023-03-29T15:25:18;18.90;99.90
27647;DHT22;42229;51.230;6.240;2023-03-29T15:27:48;18.90;99.90
27647;DHT22;42229;51.230;6.240;2023-03-29T15:30:16;18.90;99.90
27647;DHT22;42229;51.230;6.240;2023-03-29T15:32:43;18.90;99.90
27647;DHT22;42229;51.230;6.240;2023-03-29T15:35:23;18.90;99.90
27647;DHT22;42229;51.230;6.240;2023-03-29T15:37:50;18.90;99.90
27647;DHT22;42229;51.230;6.240;2023-03-29T15:40:18;19.00;99.90
27647;DHT22;42229;51.230;6.240;2023-03-29T15:42:47;19.10;99.90
27647;DHT22;42229;51.230;6.240;2023-03-29T15:45:14;19.10;99.90
27647;DHT22;42229;51.230;6.240;2023-03-29T15:47:41;19.20;99.90
27647;DHT22;42229;51.230;6.240;2023-03-29T15:50:08;19.30;99.90
27647;DHT22;42229;51.230;6.240;2023-03-29T15:52:35;19.40;99.90
27647;DHT22;42229;51.230;6.240;2023-03-29T15:55:01;19.50;99.90
27647;DHT22;42229;51.230;6.240;2023-03-29T15:57:28;19.60;99.90
27647;DHT22;42229;51.230;6.240;2023-03-29T15:59:54;19.70;99.90
27647;DHT22;42229;51.230;6.240;2023-03-29T16:02:21;19.80;99.90
27647;DHT22;42229;51.230;6.240;2023-03-29T16:04:49;19.90;99.90
27647;DHT22;42229;51.230;6.240;2023-03-29T16:07:16;19.90;99.90
27647;DHT22;42229;51.230;6.240;2023-03-29T16:09:43;19.90;99.90
27647;DHT22;42229;51.230;6.240;2023-03-29T16:12:11;19.80;99.90
27647;DHT22;42229;51.230;6.240;2023-03-29T16:14:37;19.80;99.90
27647;DHT22;42229;51.230;6.240;2023-03-29T16:17:04;19.80;99.90
27647;DHT22;42229;51.230;6.240;2023-03-29T16:19:30;19.80;99.90
27647;DHT22;42229;51.230;6.240;2023-03-29T16:21:58;19.70;99.90
27647;DHT22;42229;51.230;6.240;2023-03-29T16:24:26;19.60;99.90
27647;DHT22;42229;51.230;6.240;2023-03-29T16:26:54;19.60;99.90
27647;DHT22;42229;51.230;6.240;2023-03-29T16:29:22;19.60;99.90
27647;DHT22;42229;51.230;6.240;2023-03-29T16:31:49;19.50;99.90
27647;DHT22;42229;51.230;6.240;2023-03-29T16:34:16;19.50;99.90
27647;DHT22;42229;51.230;6.240;2023-03-29T16:36:44;19.50;99.90
27647;DHT22;42229;51.230;6.240;2023-03-29T16:39:10;19.50;99.90
27647;DHT22;42229;51.230;6.240;2023-03-29T16:41:38;19.40;99.90
27647;DHT22;42229;51.230;6.240;2023-03-29T16:44:05;19.40;99.90
27647;DHT22;42229;51.230;6.240;2023-03-29T16:46:32;19.30;99.90
27647;DHT22;42229;51.230;6.240;2023-03-29T16:48:58;19.30;99.90
27647;DHT22;42229;51.230;6.240;2023-03-29T16:51:24;19.30;99.90
27647;DHT22;42229;51.230;6.240;2023-03-29T16:53:50;19.20;99.90
27647;DHT22;42229;51.230;6.240;2023-03-29T16:56:17;19.30;99.90
27647;DHT22;42229;51.230;6.240;2023-03-29T16:58:43;19.20;99.90
27647;DHT22;42229;51.230;6.240;2023-03-29T17:01:12;19.20;99.90
27647;DHT22;42229;51.230;6.240;2023-03-29T17:03:41;19.10;99.90
27647;DHT22;42229;51.230;6.240;2023-03-29T17:06:08;19.10;99.90
27647;DHT22;42229;51.230;6.240;2023-03-29T17:08:35;19.00;99.90
27647;DHT22;42229;51.230;6.240;2023-03-29T17:11:02;19.00;99.90
27647;DHT22;42229;51.230;6.240;2023-03-29T17:13:29;19.00;99.90
27647;DHT22;42229;51.230;6.240;2023-03-29T17:15:56;19.00;99.90
27647;DHT22;42229;51.230;6.240;2023-03-29T17:18:23;18.90;99.90
27647;DHT22;42229;51.230;6.240;2023-03-29T17:20:50;18.90;99.90
27647;DHT22;42229;51.230;6.240;2023-03-29T17:23:17;18.80;99.90
27647;DHT22;42229;51.230;6.240;2023-03-29T17:25:43;18.80;99.90
27647;DHT22;42229;51.230;6.240;2023-03-29T17:28:09;18.70;99.90
27647;DHT22;42229;51.230;6.240;2023-03-29T17:30:36;18.70;99.90
27647;DHT22;42229;51.230;6.240;2023-03-29T17:33:03;18.60;99.90
27647;DHT22;42229;51.230;6.240;2023-03-29T17:35:29;18.60;99.90
27647;DHT22;42229;51.230;6.240;2023-03-29T17:37:56;18.50;99.90
27647;DHT22;42229;51.230;6.240;2023-03-29T17:40:23;18.50;99.90
27647;DHT22;42229;51.230;6.240;2023-03-29T17:42:50;18.40;99.90
27647;DHT22;42229;51.230;6.240;2023-03-29T17:45:17;18.40;99.90
27647;DHT22;42229;51.230;6.240;2023-03-29T17:47:44;18.30;99.90
27647;DHT22;42229;51.230;6.240;2023-03-29T17:50:10;18.30;99.90
27647;DHT22;42229;51.230;6.240;2023-03-29T17:52:38;18.20;99.90
27647;DHT22;42229;51.230;6.240;2023-03-29T17:55:05;18.10;99.90
27647;DHT22;42229;51.230;6.240;2023-03-29T17:57:41;18.10;99.90
27647;DHT22;42229;51.230;6.240;2023-03-29T18:00:09;18.00;99.90
27647;DHT22;42229;51.230;6.240;2023-03-29T18:02:37;18.00;99.90
27647;DHT22;42229;51.230;6.240;2023-03-29T18:05:04;17.90;99.90
27647;DHT22;42229;51.230;6.240;2023-03-29T18:07:31;17.90;99.90
27647;DHT22;42229;51.230;6.240;2023-03-29T18:09:58;17.80;99.90
27647;DHT22;42229;51.230;6.240;2023-03-29T18:12:24;17.80;99.90
27647;DHT22;42229;51.230;6.240;2023-03-29T18:14:51;17.80;99.90
27647;DHT22;42229;51.230;6.240;2023-03-29T18:17:17;17.70;99.90
27647;DHT22;42229;51.230;6.240;2023-03-29T18:19:43;17.70;99.90